createdAt,value
2019-05-05T00:02:18.309Z,70.12
2019-05-05T00:04:49.604Z,70.93
2019-05-05T00:07:25.357Z,71.41
2019-05-05T00:09:55.404Z,70.72
2019-05-05T00:12:34.323Z,70.47
2019-05-05T00:15:14.504Z,70.69
2019-05-05T00:17:45.099Z,71.09
2019-05-05T00:20:15.393Z,71.72
2019-05-05T00:22:45.494Z,71.69
2019-05-05T00:25:15.579Z,71.46
2019-05-05T00:27:45.355Z,72.22
2019-05-05T00:30:15.455Z,71.73
2019-05-05T00:32:45.194Z,71.36
2019-05-05T00:35:14.949Z,71.69
2019-05-05T00:37:45.070Z,71.14
2019-05-05T00:40:15.707Z,70.65
2019-05-05T00:42:46.962Z,70.52
2019-05-05T00:45:19.126Z,71.04
2019-05-05T00:47:54.465Z,71.25
2019-05-05T00:50:25.219Z,71.62
2019-05-05T00:52:55.233Z,71.56
2019-05-05T00:55:24.963Z,71.32
2019-05-05T00:57:54.937Z,71.38
2019-05-05T01:00:27.734Z,71.42
2019-05-05T01:02:58.033Z,71.56
2019-05-05T01:05:34.968Z,70.94
2019-05-05T01:08:07.497Z,71.36
2019-05-05T01:10:37.582Z,71.79
2019-05-05T01:13:10.261Z,71.58
2019-05-05T01:15:40.052Z,70.99
2019-05-05T01:18:09.875Z,71.08
2019-05-05T01:20:39.464Z,71.41
2019-05-05T01:23:09.350Z,69.24
2019-05-05T01:25:38.983Z,70.06
2019-05-05T01:28:09.429Z,68.95
2019-05-05T01:30:40.706Z,69.81
2019-05-05T01:33:10.169Z,69.05
2019-05-05T01:35:39.991Z,69.73
2019-05-05T01:38:27.189Z,70.51
2019-05-05T01:41:00.540Z,69.16
2019-05-05T01:43:30.546Z,69.58
2019-05-05T01:46:00.474Z,68.73
2019-05-05T01:48:30.124Z,69.10
2019-05-05T01:50:59.837Z,69.04
2019-05-05T01:53:31.745Z,69.21
2019-05-05T01:56:02.234Z,69.32
2019-05-05T01:58:32.193Z,69.80
2019-05-05T02:01:01.820Z,70.46
2019-05-05T02:03:31.489Z,71.18
2019-05-05T02:06:01.226Z,71.73
2019-05-05T02:08:30.820Z,71.77
2019-05-05T02:11:05.384Z,71.47
2019-05-05T02:13:35.275Z,71.42
2019-05-05T02:16:05.219Z,72.15
2019-05-05T02:18:34.823Z,71.74
2019-05-05T02:21:08.768Z,71.16
2019-05-05T02:23:38.769Z,71.58
2019-05-05T02:26:09.381Z,72.28
2019-05-05T02:28:45.210Z,71.98
2019-05-05T02:31:16.898Z,71.67
2019-05-05T02:33:46.610Z,72.20
2019-05-05T02:36:16.297Z,72.42
2019-05-05T02:38:46.568Z,72.41
2019-05-05T02:41:17.738Z,71.77
2019-05-05T02:43:48.164Z,70.94
2019-05-05T02:46:21.094Z,72.27
2019-05-05T02:48:55.059Z,71.89
2019-05-05T02:51:26.794Z,72.45
2019-05-05T02:53:59.571Z,72.65
2019-05-05T02:56:45.959Z,72.12
2019-05-05T02:59:20.012Z,71.92
2019-05-05T03:01:53.864Z,71.30
2019-05-05T03:04:24.598Z,71.37
2019-05-05T03:06:56.949Z,72.13
2019-05-05T03:09:29.179Z,72.27
2019-05-05T03:12:02.161Z,72.58
2019-05-05T03:14:34.739Z,72.60
2019-05-05T03:17:10.102Z,72.55
2019-05-05T03:19:40.101Z,72.75
2019-05-05T03:22:09.933Z,72.24
2019-05-05T03:24:40.109Z,73.16
2019-05-05T03:27:10.482Z,72.82
2019-05-05T03:29:40.746Z,73.26
2019-05-05T03:32:11.873Z,73.29
2019-05-05T03:34:41.661Z,73.14
2019-05-05T03:37:11.551Z,73.57
2019-05-05T03:39:44.495Z,73.48
2019-05-05T03:42:16.134Z,73.32
2019-05-05T03:44:47.467Z,73.25
2019-05-05T03:47:18.403Z,73.61
2019-05-05T03:49:49.094Z,73.78
2019-05-05T03:52:18.914Z,73.53
2019-05-05T03:54:49.166Z,73.63
2019-05-05T03:57:18.827Z,74.14
2019-05-05T03:59:49.012Z,74.76
2019-05-05T04:02:18.503Z,74.22
2019-05-05T04:04:49.843Z,73.66
2019-05-05T04:07:20.036Z,73.88
2019-05-05T04:09:51.009Z,74.06
2019-05-05T04:12:20.763Z,73.61
2019-05-05T04:14:54.440Z,73.15
2019-05-05T04:17:33.554Z,72.96
2019-05-05T04:20:13.881Z,72.86
2019-05-05T04:22:43.591Z,73.37
2019-05-05T04:25:13.890Z,73.67
2019-05-05T04:28:04.516Z,73.92
2019-05-05T04:30:34.336Z,73.89
2019-05-05T04:33:04.584Z,74.10
2019-05-05T04:35:34.391Z,74.13
2019-05-05T04:38:04.722Z,73.50
2019-05-05T04:40:34.769Z,73.11
2019-05-05T04:43:04.424Z,72.62
2019-05-05T04:45:34.838Z,72.72
2019-05-05T04:48:06.246Z,73.27
2019-05-05T04:50:54.436Z,72.15
2019-05-05T04:53:25.957Z,72.24
2019-05-05T04:55:55.548Z,72.25
2019-05-05T04:58:25.178Z,72.07
2019-05-05T05:00:54.879Z,72.11
2019-05-05T05:03:32.108Z,71.01
2019-05-05T05:06:05.781Z,71.01
2019-05-05T05:08:35.653Z,70.92
2019-05-05T05:11:05.876Z,70.76
2019-05-05T05:13:37.577Z,69.69
2019-05-05T05:16:07.347Z,69.22
2019-05-05T05:18:37.029Z,69.29
2019-05-05T05:21:06.656Z,69.83
2019-05-05T05:23:36.383Z,68.62
2019-05-05T05:26:06.141Z,68.73
2019-05-05T05:28:35.772Z,69.32
2019-05-05T05:31:05.404Z,69.46
2019-05-05T05:33:35.871Z,69.18
2019-05-05T05:36:05.518Z,69.15
2019-05-05T05:38:35.197Z,68.46
2019-05-05T05:41:09.321Z,68.55
2019-05-05T05:43:40.539Z,66.80
2019-05-05T05:46:13.512Z,65.69
2019-05-05T05:48:47.752Z,66.16
2019-05-05T05:51:23.687Z,65.14
2019-05-05T05:53:54.413Z,65.26
2019-05-05T05:56:25.002Z,64.78
2019-05-05T05:58:54.914Z,64.94
2019-05-05T06:01:24.668Z,64.74
2019-05-05T06:03:54.694Z,64.56
2019-05-05T06:06:24.345Z,64.70
2019-05-05T06:08:54.593Z,63.98
2019-05-05T06:11:24.375Z,62.54
2019-05-05T06:13:54.481Z,62.56
2019-05-05T06:16:27.709Z,62.79
2019-05-05T06:18:57.362Z,62.61
2019-05-05T06:21:26.920Z,61.29
2019-05-05T06:23:57.652Z,61.45
2019-05-05T06:26:27.363Z,61.05
2019-05-05T06:28:57.032Z,61.24
2019-05-05T06:31:26.766Z,61.69
2019-05-05T06:33:58.732Z,61.58
2019-05-05T06:36:28.395Z,60.48
2019-05-05T06:38:59.435Z,60.80
2019-05-05T06:41:30.573Z,60.39
2019-05-05T06:44:03.738Z,59.57
2019-05-05T06:46:44.494Z,59.21
2019-05-05T06:49:14.113Z,60.08
2019-05-05T06:51:44.114Z,57.29
2019-05-05T06:54:14.430Z,58.72
2019-05-05T06:56:44.547Z,60.36
2019-05-05T06:59:14.400Z,56.99
2019-05-05T07:01:44.305Z,57.02
2019-05-05T07:04:14.019Z,58.16
2019-05-05T07:06:53.533Z,59.15
2019-05-05T07:09:16.133Z,58.90
2019-05-05T07:11:45.898Z,57.42
2019-05-05T07:14:15.758Z,54.34
2019-05-05T07:16:45.451Z,52.95
2019-05-05T07:19:15.125Z,52.67
2019-05-05T07:21:44.756Z,51.90
2019-05-05T07:24:14.655Z,51.14
2019-05-05T07:26:44.765Z,50.82
2019-05-05T07:29:17.821Z,50.17
2019-05-05T07:31:45.791Z,51.23
2019-05-05T07:34:17.199Z,49.34
2019-05-05T07:36:48.345Z,49.16
2019-05-05T07:39:17.988Z,49.20
2019-05-05T07:41:47.672Z,49.36
2019-05-05T07:44:28.446Z,48.71
2019-05-05T07:46:49.140Z,48.06
2019-05-05T07:49:18.678Z,47.48
2019-05-05T07:51:48.448Z,46.85
2019-05-05T07:54:18.041Z,45.51
2019-05-05T07:56:47.563Z,46.96
2019-05-05T07:59:17.576Z,46.75
2019-05-05T08:01:47.303Z,43.89
2019-05-05T08:04:16.839Z,43.58
2019-05-05T08:06:46.342Z,42.83
2019-05-05T08:09:21.727Z,42.70
2019-05-05T08:11:50.268Z,42.30
2019-05-05T08:14:19.775Z,41.33
2019-05-05T08:16:59.797Z,40.93
2019-05-05T08:19:34.702Z,40.25
2019-05-05T08:22:04.261Z,39.30
2019-05-05T08:24:54.406Z,39.01
2019-05-05T08:27:37.282Z,39.54
2019-05-05T08:30:10.337Z,40.62
2019-05-05T08:32:43.656Z,40.31
2019-05-05T08:35:14.766Z,40.37
2019-05-05T08:37:44.649Z,39.57
2019-05-05T08:40:14.855Z,36.22
2019-05-05T08:42:44.741Z,34.27
2019-05-05T08:45:14.728Z,34.83
2019-05-05T08:47:44.458Z,33.42
2019-05-05T08:50:14.194Z,33.06
2019-05-05T08:53:04.518Z,31.94
2019-05-05T08:55:34.808Z,30.58
2019-05-05T08:58:04.712Z,28.59
2019-05-05T09:00:35.638Z,28.34
2019-05-05T09:03:05.398Z,28.96
2019-05-05T09:05:35.361Z,27.79
2019-05-05T09:08:05.237Z,27.93
2019-05-05T09:10:34.960Z,29.04
2019-05-05T09:13:04.966Z,29.56
2019-05-05T09:15:37.496Z,29.24
2019-05-05T09:18:06.223Z,29.15
2019-05-05T09:20:35.852Z,27.83
2019-05-05T09:23:06.082Z,27.75
2019-05-05T09:25:37.467Z,27.50
2019-05-05T09:28:24.631Z,26.83
2019-05-05T09:30:54.401Z,26.75
2019-05-05T09:33:24.839Z,27.12
2019-05-05T09:35:54.669Z,27.94
2019-05-05T09:38:24.574Z,28.62
2019-05-05T09:40:54.423Z,28.69
2019-05-05T09:43:24.567Z,27.49
2019-05-05T09:45:54.719Z,28.92
2019-05-05T09:48:25.028Z,27.96
2019-05-05T09:50:54.668Z,27.66
2019-05-05T09:53:27.276Z,27.71
2019-05-05T09:55:55.626Z,27.78
2019-05-05T09:58:25.677Z,27.55
2019-05-05T10:00:56.734Z,27.38
2019-05-05T10:03:26.387Z,26.30
2019-05-05T10:05:56.034Z,27.96
2019-05-05T10:08:25.649Z,26.50
2019-05-05T10:10:55.289Z,26.83
2019-05-05T10:13:24.872Z,25.63
2019-05-05T10:15:54.997Z,25.65
2019-05-05T10:18:26.302Z,26.71
2019-05-05T10:20:57.701Z,26.13
2019-05-05T10:23:28.861Z,25.35
2019-05-05T10:26:01.221Z,24.64
2019-05-05T10:28:30.960Z,25.17
2019-05-05T10:31:00.584Z,24.59
2019-05-05T10:33:30.638Z,24.86
2019-05-05T10:36:01.134Z,26.62
2019-05-05T10:38:35.340Z,27.65
2019-05-05T10:41:04.953Z,28.78
2019-05-05T11:06:56.102Z,26.41
2019-05-05T11:09:25.817Z,29.03
2019-05-05T11:11:56.182Z,28.99
2019-05-05T11:14:25.740Z,28.81
2019-05-05T11:16:58.452Z,28.23
2019-05-05T11:19:28.360Z,28.06
2019-05-05T11:21:58.165Z,28.98
2019-05-05T11:24:28.098Z,29.75
2019-05-05T11:26:57.796Z,28.68
2019-05-05T11:29:27.676Z,28.73
2019-05-05T11:31:58.989Z,29.81
2019-05-05T11:34:29.080Z,28.13
2019-05-05T11:37:00.836Z,26.98
2019-05-05T11:39:33.915Z,26.14
2019-05-05T11:42:04.423Z,26.00
2019-05-05T11:44:34.243Z,25.96
2019-05-05T11:47:03.911Z,26.11
2019-05-05T11:49:33.804Z,26.72
2019-05-05T11:52:06.112Z,27.09
2019-05-05T11:54:36.031Z,27.58
2019-05-05T11:57:05.924Z,28.39
2019-05-05T11:59:35.568Z,27.53
2019-05-05T12:02:05.341Z,27.91
2019-05-05T12:04:34.943Z,27.95
2019-05-05T12:07:04.727Z,30.61
2019-05-05T12:09:35.972Z,33.34
2019-05-05T12:12:05.723Z,36.63
2019-05-05T12:14:36.004Z,34.99
2019-05-05T12:17:05.625Z,36.05
2019-05-05T12:19:38.203Z,36.16
2019-05-05T12:22:07.825Z,35.18
2019-05-05T12:24:39.124Z,36.84
2019-05-05T12:27:11.136Z,37.03
2019-05-05T12:29:44.159Z,38.49
2019-05-05T12:32:14.925Z,37.54
2019-05-05T12:34:44.607Z,37.54
2019-05-05T12:37:15.056Z,36.07
2019-05-05T12:39:45.124Z,36.75
2019-05-05T12:42:14.731Z,36.42
2019-05-05T12:44:46.367Z,35.31
2019-05-05T12:47:20.260Z,34.77
2019-05-05T12:49:49.865Z,34.96
2019-05-05T12:52:19.507Z,34.86
2019-05-05T12:54:49.274Z,35.14
2019-05-05T12:57:19.003Z,33.72
2019-05-05T12:59:50.480Z,34.04
2019-05-05T13:02:20.055Z,33.77
2019-05-05T13:04:49.645Z,34.41
2019-05-05T13:07:19.370Z,34.93
2019-05-05T13:09:48.894Z,35.46
2019-05-05T13:12:18.559Z,35.08
2019-05-05T13:14:48.264Z,33.93
2019-05-05T13:17:17.873Z,33.92
2019-05-05T13:19:50.253Z,33.19
2019-05-05T13:22:33.829Z,32.67
2019-05-05T13:25:19.458Z,33.30
2019-05-05T13:27:49.162Z,32.75
2019-05-05T13:30:19.036Z,32.81
2019-05-05T13:32:48.702Z,32.89
2019-05-05T13:35:18.547Z,32.97
2019-05-05T13:37:48.208Z,32.67
2019-05-05T13:40:18.476Z,32.28
2019-05-05T13:42:48.480Z,32.44
2019-05-05T13:45:35.898Z,32.00
2019-05-05T13:48:05.806Z,32.06
2019-05-05T13:50:39.776Z,32.67
2019-05-05T13:53:09.631Z,33.60
2019-05-05T13:55:39.510Z,33.37
2019-05-05T13:58:09.280Z,32.97
2019-05-05T14:00:39.332Z,32.65
2019-05-05T14:03:09.226Z,33.10
2019-05-05T14:05:39.299Z,32.98
2019-05-05T14:08:09.183Z,32.70
2019-05-05T16:12:39.760Z,32.65
2019-05-05T16:15:29.957Z,32.48
2019-05-05T16:18:17.779Z,32.91
2019-05-05T16:20:55.282Z,33.19
2019-05-05T16:23:31.565Z,32.91
2019-05-05T16:26:03.579Z,32.84
2019-05-05T16:28:34.296Z,32.55
2019-05-05T16:31:05.511Z,32.28
2019-05-05T16:33:35.306Z,32.52
2019-05-05T16:36:06.422Z,32.46
2019-05-05T16:38:36.537Z,32.72
2019-05-05T16:41:06.306Z,32.67
2019-05-05T16:43:37.194Z,32.34
2019-05-05T16:46:08.213Z,32.25
2019-05-05T16:48:37.837Z,32.38
2019-05-05T16:51:09.224Z,32.92
2019-05-05T16:53:39.421Z,33.48
2019-05-05T16:56:16.536Z,33.89
2019-05-05T16:58:46.825Z,33.32
2019-05-05T17:01:17.805Z,33.44
2019-05-05T17:03:47.700Z,33.40
2019-05-05T17:06:18.637Z,32.58
2019-05-05T17:08:48.506Z,32.91
2019-05-05T17:11:18.382Z,33.01
2019-05-05T17:14:08.863Z,33.91
2019-05-05T17:16:44.250Z,34.78
2019-05-05T17:19:18.938Z,35.32
2019-05-05T17:21:53.387Z,36.07
2019-05-05T17:24:24.039Z,36.23
2019-05-05T17:26:55.138Z,36.48
2019-05-05T17:29:25.324Z,36.78
2019-05-05T17:31:55.831Z,36.16
2019-05-05T17:34:25.802Z,36.21
2019-05-05T17:36:56.299Z,36.72
2019-05-05T17:39:27.860Z,36.91
2019-05-05T17:42:14.115Z,37.02
2019-05-05T17:44:54.065Z,37.40
2019-05-05T17:47:37.650Z,38.23
2019-05-05T17:50:18.643Z,38.13
2019-05-05T17:53:04.917Z,37.90
2019-05-05T17:55:35.886Z,37.70
2019-05-05T17:58:05.703Z,37.72
2019-05-05T18:03:12.087Z,38.13
2019-05-05T18:05:59.701Z,36.75
2019-05-05T18:08:37.145Z,36.92
2019-05-05T18:11:13.534Z,37.50
2019-05-05T18:13:44.971Z,37.36
2019-05-05T18:16:16.558Z,37.58
2019-05-05T18:18:47.810Z,38.16
2019-05-05T18:21:19.432Z,38.66
2019-05-05T18:23:49.624Z,38.90
2019-05-05T18:26:19.794Z,39.29
2019-05-05T18:28:50.013Z,39.44
2019-05-05T18:31:19.862Z,39.67
2019-05-05T18:33:49.828Z,39.98
2019-05-05T18:36:19.713Z,40.70
2019-05-05T18:39:08.855Z,41.69
2019-05-05T18:41:46.550Z,42.36
2019-05-05T18:44:16.020Z,43.25
2019-05-05T18:46:47.517Z,44.51
2019-05-05T18:49:17.181Z,44.52
2019-05-05T18:51:50.715Z,44.91
2019-05-05T18:54:20.430Z,44.98
2019-05-05T18:56:51.276Z,45.52
2019-05-05T18:59:20.893Z,45.54
2019-05-05T19:01:52.055Z,45.43
2019-05-05T19:04:31.748Z,45.76
2019-05-05T19:07:08.794Z,46.10
2019-05-05T19:09:50.363Z,46.63
2019-05-05T19:12:10.336Z,46.65
2019-05-05T19:14:40.139Z,46.55
2019-05-05T19:17:09.978Z,46.12
2019-05-05T19:19:41.264Z,46.48
2019-05-05T19:22:17.873Z,46.22
2019-05-05T19:24:47.578Z,46.73
2019-05-05T19:27:17.696Z,46.62
2019-05-05T19:29:47.654Z,46.85
2019-05-05T19:32:17.647Z,47.54
2019-05-05T19:34:47.615Z,47.57
2019-05-05T19:37:18.871Z,47.91
2019-05-05T19:39:48.428Z,48.13
2019-05-05T19:42:17.967Z,48.90
2019-05-05T19:44:47.747Z,48.54
2019-05-05T19:47:21.471Z,48.85
2019-05-05T19:49:56.649Z,48.89
2019-05-05T19:52:26.206Z,49.10
2019-05-05T19:54:56.104Z,49.51
2019-05-05T19:57:25.794Z,49.56
2019-05-05T19:59:58.103Z,49.46
2019-05-05T20:02:27.696Z,49.42
2019-05-05T20:04:57.737Z,49.84
2019-05-05T20:07:27.368Z,49.96
2019-05-05T20:09:57.037Z,50.37
2019-05-05T20:12:26.744Z,50.32
2019-05-05T20:14:56.842Z,50.84
2019-05-05T20:17:34.314Z,51.02
2019-05-05T20:20:06.726Z,51.14
2019-05-05T20:22:36.682Z,51.12
2019-05-05T20:25:10.414Z,51.06
2019-05-05T20:27:39.984Z,51.22
2019-05-05T20:30:10.568Z,51.93
2019-05-05T20:32:41.772Z,51.99
2019-05-05T20:35:24.094Z,52.24
2019-05-05T20:37:57.605Z,52.56
2019-05-05T20:40:31.937Z,52.76
2019-05-05T20:43:04.016Z,52.86
2019-05-05T20:45:34.773Z,53.26
2019-05-05T20:48:04.670Z,53.55
2019-05-05T20:50:34.607Z,54.00
2019-05-05T20:53:04.997Z,54.42
2019-05-05T20:55:34.913Z,54.75
2019-05-05T20:58:04.889Z,54.95
2019-05-05T21:00:34.926Z,55.16
2019-05-05T21:03:05.011Z,55.10
2019-05-05T21:05:35.061Z,55.04
2019-05-05T21:08:05.103Z,55.33
2019-05-05T21:10:34.984Z,54.91
2019-05-05T21:13:04.653Z,55.67
2019-05-05T21:15:34.354Z,55.76
2019-05-05T21:18:05.116Z,56.17
2019-05-05T21:20:36.174Z,56.17
2019-05-05T21:23:08.503Z,56.26
2019-05-05T21:25:41.838Z,56.53
2019-05-05T21:28:11.826Z,56.64
2019-05-05T21:30:41.745Z,56.61
2019-05-05T21:33:12.067Z,56.97
2019-05-05T21:36:04.057Z,56.95
2019-05-05T21:38:32.502Z,56.95
2019-05-05T21:41:04.072Z,56.90
2019-05-05T21:43:33.353Z,57.84
2019-05-05T21:46:04.426Z,57.82
2019-05-05T21:48:34.244Z,57.86
2019-05-05T21:51:07.088Z,57.61
2019-05-05T21:53:39.255Z,57.49
2019-05-05T21:56:16.353Z,58.14
2019-05-05T21:58:47.052Z,59.89
2019-05-05T22:01:18.422Z,59.74
2019-05-05T22:03:48.272Z,59.58
2019-05-05T22:06:17.797Z,60.02
2019-05-05T22:08:47.380Z,60.36
2019-05-05T22:11:17.239Z,60.74
2019-05-05T22:13:46.739Z,60.31
2019-05-05T22:16:16.702Z,60.65
2019-05-05T22:18:46.879Z,61.00
2019-05-05T22:21:21.125Z,61.37
2019-05-05T22:24:08.372Z,61.47
2019-05-05T22:26:37.877Z,61.94
2019-05-05T22:29:07.401Z,61.61
2019-05-05T22:31:38.273Z,61.97
2019-05-05T22:34:08.169Z,62.07
2019-05-05T22:36:37.922Z,61.60
2019-05-05T22:39:16.438Z,61.64
2019-05-05T22:41:44.874Z,61.23
2019-05-05T22:44:14.465Z,61.46
2019-05-05T22:46:44.811Z,61.48
2019-05-05T22:49:14.830Z,62.62
2019-05-05T22:51:44.947Z,61.92
2019-05-05T22:54:15.112Z,61.66
2019-05-05T22:56:45.852Z,61.55
2019-05-05T22:59:15.460Z,61.97
2019-05-05T23:01:45.626Z,61.83
2019-05-05T23:04:16.858Z,62.80
2019-05-05T23:06:48.150Z,63.53
2019-05-05T23:09:17.959Z,63.45
2019-05-05T23:11:47.687Z,62.83
2019-05-05T23:14:29.862Z,63.52
2019-05-05T23:17:04.627Z,64.03
2019-05-05T23:19:36.419Z,63.85
2019-05-05T23:22:10.792Z,64.27
2019-05-05T23:24:43.487Z,64.56
2019-05-05T23:27:14.991Z,64.95
2019-05-05T23:29:44.665Z,64.58
2019-05-05T23:32:15.535Z,64.71
2019-05-05T23:34:47.479Z,64.40
2019-05-05T23:37:17.028Z,64.78
2019-05-05T23:39:46.795Z,64.86
2019-05-05T23:42:16.484Z,64.65
2019-05-05T23:44:45.995Z,64.40
2019-05-05T23:47:15.716Z,64.55
2019-05-05T23:49:45.305Z,65.12
2019-05-05T23:52:16.513Z,64.66
2019-05-05T23:54:46.167Z,64.95
2019-05-05T23:57:15.815Z,65.17
2019-05-05T23:59:45.354Z,65.46
